^^
Station Historical Data
Daily Summary for January 5, 2017 Units:  English    Metric   Both
« Previous Day
Next Day »
Daily Weekly Monthly Yearly Custom
  High: Low: Average:
Temperature: 29.5 °F 22.5 °F 26.6 °F
Dew Point: 22.9 °F 9.8 °F 13.8 °F
Humidity: 87 % 50 % 58 %
Wind Speed: 15.1 mph 0.0 mph 3.8 mph
Wind Gust: 21.9 mph - -
Wind:- - WSW
Pressure: 30.03 in 29.81 in -
Precipitation: 0.00 in    
Historical Graphs
 
 
Tabular Data for January 5, 2017
Time Temperature Dew Point Pressure Wind Wind Speed Wind Gust Humidity Rainfall Rate (Hourly) solar Conditions
00:04 28.6 °F 13.2 °F 29.81 in WNW 15.1 mph 19.0 mph 52 % 0.00 in 0.0 W/m2 RA
00:09 28.5 °F 12.6 °F 29.82 in West 10.5 mph 19.6 mph 51 % 0.00 in 0.0 W/m2 RA
00:14 28.4 °F 12.6 °F 29.82 in WSW 9.4 mph 18.4 mph 51 % 0.00 in 0.0 W/m2 CLR
00:19 28.1 °F 12.3 °F 29.83 in West 10.2 mph 15.0 mph 51 % 0.00 in 0.0 W/m2 CLR
00:24 27.9 °F 12.1 °F 29.83 in West 5.8 mph 8.1 mph 51 % 0.00 in 0.0 W/m2 CLR
00:29 27.6 °F 11.8 °F 29.83 in WNW 6.2 mph 9.0 mph 51 % 0.00 in 0.0 W/m2 CLR
00:34 27.5 °F 11.3 °F 29.83 in West 7.2 mph 21.9 mph 50 % 0.00 in 0.0 W/m2 CLR
00:39 27.3 °F 11.1 °F 29.83 in WNW 12.5 mph 19.0 mph 50 % 0.00 in 0.0 W/m2 CLR
00:44 27.2 °F 11.0 °F 29.83 in WNW 7.3 mph 9.2 mph 50 % 0.00 in 0.0 W/m2 CLR
00:49 27.1 °F 11.3 °F 29.84 in NW 8.5 mph 12.7 mph 51 % 0.00 in 0.0 W/m2 CLR
00:54 26.9 °F 11.2 °F 29.84 in WNW 9.8 mph 13.8 mph 51 % 0.00 in 0.0 W/m2 CLR
00:59 26.8 °F 11.1 °F 29.84 in NW 5.6 mph 10.4 mph 51 % 0.00 in 0.0 W/m2 CLR
01:04 26.7 °F 11.0 °F 29.84 in WSW 6.2 mph 11.5 mph 51 % 0.00 in 0.0 W/m2 CLR
01:09 26.6 °F 11.3 °F 29.84 in WNW 7.5 mph 11.5 mph 52 % 0.00 in 0.0 W/m2 CLR
01:14 26.5 °F 11.2 °F 29.84 in West 2.3 mph 4.0 mph 52 % 0.00 in 0.0 W/m2 CLR
01:19 26.3 °F 11.0 °F 29.84 in WNW 2.4 mph 4.0 mph 52 % 0.00 in 0.0 W/m2 CLR
01:24 26.1 °F 11.3 °F 29.84 in WNW 1.1 mph 2.3 mph 53 % 0.00 in 0.0 W/m2 CLR
01:29 26.0 °F 11.2 °F 29.84 in NW 2.1 mph 4.6 mph 53 % 0.00 in 0.0 W/m2 CLR
01:34 25.8 °F 11.4 °F 29.85 in WSW 2.0 mph 4.0 mph 54 % 0.00 in 0.0 W/m2 CLR
01:40 25.7 °F 11.7 °F 29.85 in SW 3.0 mph 4.6 mph 55 % 0.00 in 0.0 W/m2 CLR
01:45 25.7 °F 11.7 °F 29.85 in SW 0.6 mph 4.0 mph 55 % 0.00 in 0.0 W/m2 CLR
01:50 25.6 °F 11.7 °F 29.85 in West 2.5 mph 3.5 mph 55 % 0.00 in 0.0 W/m2 CLR
01:55 25.4 °F 11.9 °F 29.85 in WNW 2.6 mph 6.9 mph 56 % 0.00 in 0.0 W/m2 CLR
02:00 25.4 °F 11.9 °F 29.85 in WNW 5.4 mph 10.4 mph 56 % 0.00 in 0.0 W/m2 CLR
02:05 25.5 °F 11.6 °F 29.85 in SW 6.0 mph 10.0 mph 55 % 0.00 in 0.0 W/m2 CLR
02:10 25.4 °F 11.5 °F 29.86 in West 6.0 mph 6.9 mph 55 % 0.00 in 0.0 W/m2 CLR
02:15 25.4 °F 11.5 °F 29.86 in WSW 8.4 mph 12.0 mph 55 % 0.00 in 0.0 W/m2 CLR
02:20 25.4 °F 11.5 °F 29.87 in West 5.9 mph 11.5 mph 55 % 0.00 in 0.0 W/m2 CLR
02:27 25.2 °F 11.3 °F 29.88 in WSW 2.9 mph 9.2 mph 55 % 0.00 in 0.0 W/m2 CLR
02:32 25.0 °F 11.1 °F 29.88 in West 2.8 mph 7.0 mph 55 % 0.00 in 0.0 W/m2 CLR
02:37 24.9 °F 11.0 °F 29.88 in WSW 3.2 mph 7.0 mph 55 % 0.00 in 0.0 W/m2 CLR
02:42 24.8 °F 10.9 °F 29.89 in SSW 4.9 mph 7.0 mph 55 % 0.00 in 0.0 W/m2 CLR
02:47 24.7 °F 11.2 °F 29.90 in West 3.8 mph 7.0 mph 56 % 0.00 in 0.0 W/m2 CLR
02:52 24.7 °F 10.8 °F 29.90 in WSW 1.3 mph 6.9 mph 55 % 0.00 in 0.0 W/m2 CLR
02:57 24.6 °F 10.3 °F 29.90 in WNW 5.6 mph 9.2 mph 54 % 0.00 in 0.0 W/m2 CLR
03:02 24.6 °F 9.9 °F 29.90 in West 3.4 mph 11.5 mph 53 % 0.00 in 0.0 W/m2 CLR
03:07 24.5 °F 9.8 °F 29.90 in WSW 2.4 mph 3.5 mph 53 % 0.00 in 0.0 W/m2 CLR
03:12 24.5 °F 9.8 °F 29.90 in West 4.5 mph 9.2 mph 53 % 0.00 in 0.0 W/m2 CLR
03:17 24.4 °F 10.1 °F 29.90 in WSW 3.3 mph 3.5 mph 54 % 0.00 in 0.0 W/m2 CLR
03:22 24.4 °F 10.1 °F 29.90 in WSW 5.9 mph 10.4 mph 54 % 0.00 in 0.0 W/m2 CLR
03:27 24.4 °F 10.1 °F 29.90 in West 3.6 mph 8.1 mph 54 % 0.00 in 0.0 W/m2 CLR
03:32 24.4 °F 10.1 °F 29.91 in West 5.4 mph 10.4 mph 54 % 0.00 in 0.0 W/m2 CLR
03:37 24.4 °F 10.1 °F 29.91 in SW 4.0 mph 10.4 mph 54 % 0.00 in 0.0 W/m2 CLR
03:42 24.4 °F 10.1 °F 29.91 in West 3.7 mph 6.9 mph 54 % 0.00 in 0.0 W/m2 CLR
03:47 24.3 °F 10.0 °F 29.91 in West 6.8 mph 8.1 mph 54 % 0.00 in 0.0 W/m2 CLR
03:52 24.3 °F 10.0 °F 29.91 in West 2.9 mph 11.5 mph 54 % 0.00 in 0.0 W/m2 CLR
03:57 24.3 °F 10.4 °F 29.91 in West 3.1 mph 6.9 mph 55 % 0.00 in 0.0 W/m2 CLR
04:02 24.2 °F 10.3 °F 29.91 in West 4.0 mph 11.5 mph 55 % 0.00 in 0.0 W/m2 CLR
04:07 24.2 °F 10.3 °F 29.91 in SW 6.6 mph 9.0 mph 55 % 0.00 in 0.0 W/m2 CLR
04:12 24.1 °F 10.6 °F 29.92 in West 3.6 mph 3.6 mph 56 % 0.00 in 0.0 W/m2 CLR
04:17 24.0 °F 10.6 °F 29.92 in West 8.2 mph 12.7 mph 56 % 0.00 in 0.0 W/m2 CLR
04:22 24.0 °F 10.6 °F 29.92 in West 4.5 mph 8.1 mph 56 % 0.00 in 0.0 W/m2 CLR
04:27 24.0 °F 11.0 °F 29.92 in West 6.6 mph 10.4 mph 57 % 0.00 in 0.0 W/m2 CLR
04:32 23.9 °F 10.9 °F 29.92 in West 6.7 mph 11.5 mph 57 % 0.00 in 0.0 W/m2 CLR
04:37 24.0 °F 11.0 °F 29.93 in West 6.3 mph 12.7 mph 57 % 0.00 in 0.0 W/m2 CLR
04:42 23.9 °F 10.9 °F 29.92 in West 7.4 mph 10.4 mph 57 % 0.00 in 0.0 W/m2 CLR
04:47 23.9 °F 10.9 °F 29.92 in West 6.5 mph 9.2 mph 57 % 0.00 in 0.0 W/m2 CLR
04:52 23.8 °F 10.8 °F 29.92 in West 6.6 mph 10.4 mph 57 % 0.00 in 0.0 W/m2 CLR
04:57 23.7 °F 10.7 °F 29.93 in West 4.7 mph 10.4 mph 57 % 0.00 in 0.0 W/m2 CLR
05:02 23.6 °F 11.0 °F 29.93 in West 2.0 mph 3.5 mph 58 % 0.00 in 0.0 W/m2 CLR
05:07 23.5 °F 10.9 °F 29.93 in West 3.9 mph 8.1 mph 58 % 0.00 in 0.0 W/m2 CLR
05:12 23.3 °F 11.1 °F 29.93 in West 2.0 mph 3.5 mph 59 % 0.00 in 0.0 W/m2 CLR
05:17 23.2 °F 11.4 °F 29.94 in WSW 0.5 mph 2.3 mph 60 % 0.00 in 0.0 W/m2 CLR
05:22 23.0 °F 11.2 °F 29.94 in WSW 1.2 mph 3.5 mph 60 % 0.00 in 0.0 W/m2 CLR
05:27 23.0 °F 11.2 °F 29.94 in West 0.6 mph 3.5 mph 60 % 0.00 in 0.0 W/m2 CLR
05:32 22.9 °F 11.1 °F 29.95 in WSW 2.1 mph 4.6 mph 60 % 0.00 in 0.0 W/m2 CLR
05:37 22.8 °F 11.3 °F 29.95 in WSW 2.2 mph 5.8 mph 61 % 0.00 in 0.0 W/m2 CLR
05:42 22.8 °F 11.3 °F 29.95 in West 2.7 mph 6.9 mph 61 % 0.00 in 0.0 W/m2 CLR
05:47 22.8 °F 11.3 °F 29.96 in WSW 4.5 mph 8.1 mph 61 % 0.00 in 0.0 W/m2 CLR
05:52 22.9 °F 11.4 °F 29.96 in West 3.2 mph 5.8 mph 61 % 0.00 in 0.0 W/m2 CLR
05:57 22.9 °F 11.4 °F 29.96 in West 3.5 mph 7.0 mph 61 % 0.00 in 0.0 W/m2 CLR
06:02 22.9 °F 11.4 °F 29.96 in West 1.5 mph 5.8 mph 61 % 0.00 in 0.0 W/m2 CLR
06:07 23.0 °F 11.2 °F 29.96 in WSW 4.4 mph 5.8 mph 60 % 0.00 in 0.0 W/m2 CLR
06:12 23.0 °F 11.5 °F 29.97 in West 2.8 mph 3.5 mph 61 % 0.00 in 0.0 W/m2 CLR
06:17 22.9 °F 11.4 °F 29.97 in WSW 2.9 mph 3.5 mph 61 % 0.00 in 0.0 W/m2 CLR
06:22 22.9 °F 11.4 °F 29.97 in WSW 1.3 mph 3.5 mph 61 % 0.00 in 0.0 W/m2 CLR
06:27 22.8 °F 11.3 °F 29.97 in Calm   1.2 mph 61 % 0.00 in 0.0 W/m2 CLR
06:32 22.7 °F 11.3 °F 29.98 in West 1.2 mph 2.3 mph 61 % 0.00 in 0.0 W/m2 CLR
06:37 22.6 °F 11.2 °F 29.98 in West 1.2 mph 3.5 mph 61 % 0.00 in 0.0 W/m2 CLR
06:42 22.5 °F 11.1 °F 29.99 in WSW 1.4 mph 2.3 mph 61 % 0.00 in 0.0 W/m2 CLR
06:47 22.5 °F 11.1 °F 29.99 in Calm   1.2 mph 61 % 0.00 in 0.0 W/m2 CLR
06:52 22.5 °F 11.1 °F 30.00 in WSW 1.1 mph 2.0 mph 61 % 0.00 in 0.0 W/m2 CLR
06:57 22.6 °F 11.5 °F 30.00 in West 2.0 mph 3.5 mph 62 % 0.00 in 0.0 W/m2 CLR
07:02 22.7 °F 11.6 °F 30.00 in West 7.1 mph 11.5 mph 62 % 0.00 in 0.0 W/m2 OVC
07:07 22.8 °F 11.3 °F 29.99 in WNW 5.2 mph 9.2 mph 61 % 0.00 in 0.0 W/m2 OVC
07:12 23.0 °F 11.5 °F 30.00 in WSW 1.4 mph 4.0 mph 61 % 0.00 in 0.0 W/m2 OVC
07:17 22.9 °F 11.4 °F 29.99 in WSW 2.1 mph 3.5 mph 61 % 0.00 in 0.0 W/m2 OVC
07:22 22.7 °F 11.3 °F 29.99 in WSW 0.5 mph 2.3 mph 61 % 0.00 in 0.0 W/m2 OVC
07:27 22.6 °F 11.2 °F 29.99 in WSW 0.8 mph 2.3 mph 61 % 0.00 in 0.0 W/m2 OVC
07:32 22.6 °F 11.5 °F 29.98 in West 0.9 mph 2.3 mph 62 % 0.00 in 0.0 W/m2 OVC
07:37 22.6 °F 11.5 °F 29.98 in West 1.1 mph 3.5 mph 62 % 0.00 in 5.0 W/m2 OVC
07:42 22.7 °F 11.6 °F 29.98 in West 4.0 mph 6.0 mph 62 % 0.00 in 7.0 W/m2 OVC
07:48 22.7 °F 11.6 °F 29.99 in West 0.2 mph 3.5 mph 62 % 0.00 in 11.0 W/m2 CLR
07:53 22.6 °F 11.9 °F 29.99 in WSW 1.1 mph 2.3 mph 63 % 0.00 in 16.0 W/m2 CLR
07:58 22.6 °F 11.9 °F 29.99 in WSW 1.3 mph 2.3 mph 63 % 0.00 in 28.0 W/m2 CLR
08:03 22.6 °F 11.9 °F 30.00 in WSW 2.2 mph 3.5 mph 63 % 0.00 in 28.0 W/m2 CLR
08:08 22.7 °F 12.0 °F 30.00 in WSW 1.0 mph 4.0 mph 63 % 0.00 in 30.0 W/m2 CLR
08:13 22.9 °F 12.2 °F 29.99 in West 2.9 mph 4.0 mph 63 % 0.00 in 35.0 W/m2 CLR
08:18 23.1 °F 12.4 °F 30.00 in WSW 4.3 mph 5.8 mph 63 % 0.00 in 39.0 W/m2 CLR
08:23 23.4 °F 12.6 °F 30.00 in WSW 1.2 mph 3.0 mph 63 % 0.00 in 39.0 W/m2 FEW
08:28 23.6 °F 12.5 °F 30.01 in WSW 2.9 mph 6.9 mph 62 % 0.00 in 37.0 W/m2 SCT
08:33 23.7 °F 12.6 °F 30.02 in WSW 2.8 mph 5.8 mph 62 % 0.00 in 37.0 W/m2 BKN
08:38 23.7 °F 12.6 °F 30.02 in SW 2.8 mph 3.5 mph 62 % 0.00 in 47.0 W/m2 SCT
08:43 23.7 °F 12.9 °F 30.02 in SW 2.4 mph 5.0 mph 63 % 0.00 in 47.0 W/m2 SCT
08:48 23.9 °F 13.1 °F 30.02 in WSW 4.8 mph 6.9 mph 63 % 0.00 in 58.0 W/m2 SCT
08:53 24.1 °F 12.9 °F 30.02 in WSW 3.1 mph 6.9 mph 62 % 0.00 in 70.0 W/m2 SCT
08:58 24.4 °F 13.2 °F 30.03 in West 0.3 mph 5.8 mph 62 % 0.00 in 69.0 W/m2 SCT
09:03 24.6 °F 13.1 °F 30.03 in West 2.0 mph 6.9 mph 61 % 0.00 in 67.0 W/m2 SCT
09:08 24.7 °F 12.8 °F 30.03 in WSW 1.2 mph 3.5 mph 60 % 0.00 in 69.0 W/m2 BKN
09:13 24.8 °F 12.9 °F 30.03 in WNW 2.5 mph 3.5 mph 60 % 0.00 in 67.0 W/m2 BKN
09:18 25.0 °F 13.1 °F 30.03 in WNW 6.1 mph 9.2 mph 60 % 0.00 in 69.0 W/m2 BKN
09:23 25.1 °F 12.8 °F 30.03 in WSW 2.4 mph 3.5 mph 59 % 0.00 in 72.0 W/m2 BKN
09:28 25.2 °F 12.9 °F 30.03 in WSW 2.1 mph 3.5 mph 59 % 0.00 in 67.0 W/m2 BKN
09:33 25.3 °F 13.0 °F 30.03 in West 2.9 mph 5.8 mph 59 % 0.00 in 79.0 W/m2 BKN
09:38 25.3 °F 12.6 °F 30.03 in West 2.7 mph 5.8 mph 58 % 0.00 in 84.0 W/m2 BKN
09:43 25.4 °F 12.7 °F 30.03 in WNW 5.5 mph 7.0 mph 58 % 0.00 in 86.0 W/m2 BKN
09:48 25.5 °F 12.4 °F 30.03 in WNW 4.0 mph 6.9 mph 57 % 0.00 in 84.0 W/m2 BKN
09:53 25.7 °F 12.2 °F 30.03 in West 8.5 mph 10.4 mph 56 % 0.00 in 91.0 W/m2 BKN
09:58 25.8 °F 12.2 °F 30.02 in West 2.9 mph 8.1 mph 56 % 0.00 in 86.0 W/m2 BKN
10:03 25.8 °F 12.2 °F 30.02 in WNW 8.0 mph 8.1 mph 56 % 0.00 in 93.0 W/m2 BKN
10:08 25.8 °F 12.2 °F 30.02 in West 5.3 mph 9.2 mph 56 % 0.00 in 120.0 W/m2 BKN
10:13 26.0 °F 12.0 °F 30.02 in West 7.0 mph 10.4 mph 55 % 0.00 in 123.0 W/m2 SCT
10:18 26.0 °F 12.0 °F 30.02 in WSW 8.0 mph 13.8 mph 55 % 0.00 in 132.0 W/m2 SCT
10:23 26.1 °F 12.1 °F 30.02 in SW 8.0 mph 11.5 mph 55 % 0.00 in 172.0 W/m2 SCT
10:28 26.3 °F 11.9 °F 30.03 in WSW 4.4 mph 5.8 mph 54 % 0.00 in 183.0 W/m2 FEW
10:33 26.4 °F 12.0 °F 30.03 in WSW 4.5 mph 8.1 mph 54 % 0.00 in 171.0 W/m2 SCT
10:38 26.6 °F 12.2 °F 30.03 in WSW 3.1 mph 4.0 mph 54 % 0.00 in 176.0 W/m2 SCT
10:43 26.8 °F 12.4 °F 30.03 in West 6.9 mph 11.5 mph 54 % 0.00 in 178.0 W/m2 SCT
10:48 26.7 °F 11.8 °F 30.03 in West 6.5 mph 11.5 mph 53 % 0.00 in 190.0 W/m2 SCT
10:53 26.6 °F 11.7 °F 30.03 in West 6.1 mph 11.5 mph 53 % 0.00 in 206.0 W/m2 FEW
10:58 26.7 °F 11.8 °F 30.03 in WSW 8.0 mph 12.7 mph 53 % 0.00 in 246.0 W/m2 CLR
11:03 26.8 °F 11.9 °F 30.02 in WSW 10.9 mph 13.8 mph 53 % 0.00 in 248.0 W/m2 CLR
11:08 27.1 °F 12.2 °F 30.01 in WNW 5.9 mph 11.0 mph 53 % 0.00 in 218.0 W/m2 CLR
11:13 27.2 °F 12.3 °F 30.01 in West 5.8 mph 10.4 mph 53 % 0.00 in 230.0 W/m2 CLR
11:18 27.2 °F 12.3 °F 30.01 in West 6.5 mph 9.2 mph 53 % 0.00 in 236.0 W/m2 CLR
11:23 27.2 °F 12.7 °F 30.01 in West 5.5 mph 9.0 mph 54 % 0.00 in 283.0 W/m2 CLR
11:28 27.4 °F 12.5 °F 30.01 in West 7.6 mph 13.0 mph 53 % 0.00 in 341.0 W/m2 CLR
11:33 27.6 °F 12.7 °F 30.01 in West 6.7 mph 11.5 mph 53 % 0.00 in 292.0 W/m2 CLR
11:38 28.0 °F 12.6 °F 30.00 in West 5.2 mph 9.2 mph 52 % 0.00 in 330.0 W/m2 CLR
11:43 27.7 °F 12.3 °F 30.00 in West 7.2 mph 11.5 mph 52 % 0.00 in 271.0 W/m2 CLR
11:48 27.5 °F 12.2 °F 29.99 in SSW 7.9 mph 11.5 mph 52 % 0.00 in 281.0 W/m2 CLR
11:53 27.7 °F 12.8 °F 29.99 in WSW 3.7 mph 5.8 mph 53 % 0.00 in 346.0 W/m2 CLR
11:58 28.4 °F 13.0 °F 29.99 in WNW 4.0 mph 6.9 mph 52 % 0.00 in 418.0 W/m2 CLR
12:03 28.6 °F 13.2 °F 29.99 in SW 7.5 mph 11.5 mph 52 % 0.00 in 513.0 W/m2 CLR
12:08 28.5 °F 12.6 °F 29.98 in West 6.7 mph 9.2 mph 51 % 0.00 in 540.0 W/m2 CLR
12:13 28.9 °F 13.5 °F 29.98 in West 7.4 mph 10.4 mph 52 % 0.00 in 568.0 W/m2 CLR
12:18 28.9 °F 13.5 °F 29.98 in WSW 7.3 mph 11.5 mph 52 % 0.00 in 476.0 W/m2 CLR
12:23 29.1 °F 13.2 °F 29.97 in SSW 5.9 mph 7.0 mph 51 % 0.00 in 431.0 W/m2 CLR
12:28 29.2 °F 13.3 °F 29.97 in SW 4.8 mph 9.2 mph 51 % 0.00 in 429.0 W/m2 CLR
12:33 28.9 °F 13.0 °F 29.96 in SW 5.9 mph 11.5 mph 51 % 0.00 in 288.0 W/m2 CLR
12:38 28.5 °F 13.1 °F 29.96 in SW 6.5 mph 11.5 mph 52 % 0.00 in 360.0 W/m2 CLR
12:43 28.7 °F 13.7 °F 29.96 in SSW 5.3 mph 6.9 mph 53 % 0.00 in 352.0 W/m2 CLR
12:44 28.7 °F 13.7 °F 29.96 in West 5.0 mph 6.9 mph 53 % 0.00 in 352.0 W/m2 CLR
12:49 28.9 °F 13.9 °F 29.96 in SW 5.5 mph 6.9 mph 53 % 0.00 in 362.0 W/m2 CLR
12:54 29.0 °F 14.0 °F 29.96 in WSW 7.6 mph 10.4 mph 53 % 0.00 in 322.0 W/m2 CLR
12:59 28.9 °F 13.9 °F 29.96 in SW 5.6 mph 9.2 mph 53 % 0.00 in 264.0 W/m2 CLR
13:04 28.6 °F 14.0 °F 29.97 in WSW 6.9 mph 9.0 mph 54 % 0.00 in 211.0 W/m2 FEW
13:09 28.6 °F 13.2 °F 29.96 in WSW 7.9 mph 11.5 mph 52 % 0.00 in 206.0 W/m2 SCT
13:14 28.7 °F 13.7 °F 29.96 in WSW 6.6 mph 9.2 mph 53 % 0.00 in 206.0 W/m2 SCT
13:19 28.7 °F 13.7 °F 29.96 in WSW 5.8 mph 8.1 mph 53 % 0.00 in 218.0 W/m2 FEW
13:24 28.9 °F 13.9 °F 29.96 in West 4.1 mph 8.1 mph 53 % 0.00 in 221.0 W/m2 CLR
13:29 28.8 °F 13.8 °F 29.96 in SW 2.7 mph 8.1 mph 53 % 0.00 in 176.0 W/m2 SCT
13:34 29.0 °F 13.6 °F 29.96 in West 4.8 mph 4.8 mph 52 % 0.00 in 200.0 W/m2 FEW
13:39 28.9 °F 13.5 °F 29.96 in West 8.3 mph 11.5 mph 52 % 0.00 in 178.0 W/m2 SCT
13:44 28.7 °F 13.3 °F 29.96 in WSW 8.1 mph 10.4 mph 52 % 0.00 in 186.0 W/m2 SCT
13:49 28.9 °F 13.5 °F 29.96 in SW 4.4 mph 6.9 mph 52 % 0.00 in 193.0 W/m2 FEW
13:54 29.1 °F 13.6 °F 29.95 in WSW 4.8 mph 10.4 mph 52 % 0.00 in 163.0 W/m2 SCT
13:59 29.3 °F 13.8 °F 29.95 in WSW 3.2 mph 8.0 mph 52 % 0.00 in 158.0 W/m2 SCT
14:04 29.3 °F 13.8 °F 29.95 in West 5.9 mph 9.2 mph 52 % 0.00 in 148.0 W/m2 SCT
14:09 29.0 °F 13.1 °F 29.96 in WSW 4.7 mph 8.1 mph 51 % 0.00 in 132.0 W/m2 SCT
14:14 29.0 °F 13.6 °F 29.96 in WSW 4.1 mph 9.0 mph 52 % 0.00 in 155.0 W/m2 SCT
14:19 29.2 °F 13.7 °F 29.95 in SW 5.6 mph 8.1 mph 52 % 0.00 in 169.0 W/m2 FEW
14:24 29.1 °F 13.6 °F 29.96 in West 4.6 mph 13.0 mph 52 % 0.00 in 163.0 W/m2 FEW
14:29 29.4 °F 13.9 °F 29.96 in West 7.5 mph 12.7 mph 52 % 0.00 in 260.0 W/m2 CLR
14:34 29.5 °F 14.5 °F 29.96 in West 5.6 mph 11.5 mph 53 % 0.00 in 183.0 W/m2 CLR
14:39 29.4 °F 13.9 °F 29.95 in West 2.6 mph 5.8 mph 52 % 0.00 in 165.0 W/m2 CLR
14:44 29.5 °F 14.0 °F 29.95 in WSW 4.6 mph 8.1 mph 52 % 0.00 in 139.0 W/m2 FEW
14:49 29.3 °F 12.9 °F 29.95 in WSW 5.9 mph 11.5 mph 50 % 0.00 in 137.0 W/m2 FEW
14:54 29.1 °F 13.2 °F 29.95 in WSW 4.7 mph 9.2 mph 51 % 0.00 in 125.0 W/m2 FEW
14:59 29.2 °F 13.3 °F 29.95 in WSW 5.3 mph 10.0 mph 51 % 0.00 in 107.0 W/m2 SCT
15:04 29.3 °F 13.4 °F 29.95 in WSW 3.5 mph 6.0 mph 51 % 0.00 in 114.0 W/m2 FEW
15:09 29.4 °F 13.5 °F 29.96 in WSW 2.9 mph 6.9 mph 51 % 0.00 in 109.0 W/m2 FEW
15:14 29.5 °F 13.6 °F 29.95 in WSW 4.4 mph 5.8 mph 51 % 0.00 in 90.0 W/m2 SCT
15:19 29.4 °F 13.5 °F 29.95 in SW 1.9 mph 4.0 mph 51 % 0.00 in 77.0 W/m2 SCT
15:24 29.2 °F 13.7 °F 29.93 in SSW 5.0 mph 6.9 mph 52 % 0.00 in 69.0 W/m2 SCT
15:29 29.1 °F 13.6 °F 29.93 in SW 2.6 mph 8.1 mph 52 % 0.00 in 69.0 W/m2 SCT
15:34 29.1 °F 13.6 °F 29.93 in West 5.3 mph 10.4 mph 52 % 0.00 in 67.0 W/m2 SCT
15:39 29.1 °F 14.1 °F 29.94 in West 5.3 mph 11.0 mph 53 % 0.00 in 58.0 W/m2 SCT
15:44 29.0 °F 13.6 °F 29.94 in WSW 6.5 mph 11.5 mph 52 % 0.00 in 51.0 W/m2 SCT
15:49 29.0 °F 13.6 °F 29.94 in West 6.6 mph 10.4 mph 52 % 0.00 in 49.0 W/m2 SCT
15:54 29.0 °F 14.0 °F 29.95 in West 6.1 mph 10.4 mph 53 % 0.00 in 46.0 W/m2 SCT
15:59 29.0 °F 14.0 °F 29.95 in WSW 5.3 mph 8.0 mph 53 % 0.00 in 42.0 W/m2 SCT
16:04 29.0 °F 14.0 °F 29.96 in West 5.2 mph 11.0 mph 53 % 0.00 in 44.0 W/m2 CLR
16:10 29.1 °F 14.1 °F 29.96 in WNW 6.2 mph 8.1 mph 53 % 0.00 in 46.0 W/m2 CLR
16:15 29.1 °F 13.6 °F 29.96 in West 5.9 mph 11.5 mph 52 % 0.00 in 30.0 W/m2 CLR
16:20 29.0 °F 13.6 °F 29.97 in West 6.6 mph 10.4 mph 52 % 0.00 in 21.0 W/m2 SCT
16:25 28.9 °F 13.5 °F 29.96 in West 3.6 mph 10.4 mph 52 % 0.00 in 16.0 W/m2 SCT
16:31 28.8 °F 13.4 °F 29.96 in WSW 4.9 mph 11.5 mph 52 % 0.00 in 14.0 W/m2 CLR
16:36 28.7 °F 13.7 °F 29.95 in SW 2.7 mph 9.2 mph 53 % 0.00 in 11.0 W/m2 CLR
16:41 28.7 °F 13.7 °F 29.95 in WSW 6.3 mph 6.9 mph 53 % 0.00 in 9.0 W/m2 CLR
16:46 28.7 °F 13.7 °F 29.96 in WSW 4.4 mph 5.8 mph 53 % 0.00 in 5.0 W/m2 OVC
16:51 28.6 °F 13.6 °F 29.96 in West 2.2 mph 6.9 mph 53 % 0.00 in 0.0 W/m2 OVC
16:56 28.6 °F 13.6 °F 29.96 in WSW 4.9 mph 8.1 mph 53 % 0.00 in 0.0 W/m2 OVC
17:01 28.6 °F 14.0 °F 29.97 in WSW 7.2 mph 11.5 mph 54 % 0.00 in 0.0 W/m2 CLR
17:06 28.6 °F 14.0 °F 29.96 in WSW 3.8 mph 9.2 mph 54 % 0.00 in 0.0 W/m2 CLR
17:11 28.6 °F 14.0 °F 29.97 in WSW 1.8 mph 5.8 mph 54 % 0.00 in 0.0 W/m2 CLR
17:16 28.5 °F 13.9 °F 29.97 in SW 3.0 mph 4.6 mph 54 % 0.00 in 0.0 W/m2 CLR
17:21 28.4 °F 14.3 °F 29.97 in SW 1.1 mph 4.0 mph 55 % 0.00 in 0.0 W/m2 CLR
17:26 28.4 °F 14.3 °F 29.97 in SW 3.0 mph 5.8 mph 55 % 0.00 in 0.0 W/m2 CLR
17:31 28.4 °F 14.7 °F 29.97 in SSW 4.1 mph 4.1 mph 56 % 0.00 in 0.0 W/m2 CLR
17:36 28.5 °F 14.4 °F 29.97 in SSW 4.1 mph 6.9 mph 55 % 0.00 in 0.0 W/m2 CLR
17:41 28.5 °F 14.4 °F 29.97 in SW 2.7 mph 5.8 mph 55 % 0.00 in 0.0 W/m2 CLR
17:46 28.5 °F 14.4 °F 29.97 in SW 3.7 mph 4.6 mph 55 % 0.00 in 0.0 W/m2 CLR
17:51 28.4 °F 14.3 °F 29.97 in SW 3.8 mph 5.8 mph 55 % 0.00 in 0.0 W/m2 CLR
17:56 28.4 °F 14.3 °F 29.97 in SW 2.3 mph 3.5 mph 55 % 0.00 in 0.0 W/m2 CLR
18:01 28.5 °F 14.4 °F 29.98 in SW 2.0 mph 5.0 mph 55 % 0.00 in 0.0 W/m2 CLR
18:06 28.5 °F 14.4 °F 29.98 in WSW 0.7 mph 3.5 mph 55 % 0.00 in 0.0 W/m2 CLR
18:11 28.5 °F 14.4 °F 29.97 in SW 0.9 mph 2.3 mph 55 % 0.00 in 0.0 W/m2 CLR
18:16 28.4 °F 14.3 °F 29.97 in SW 2.3 mph 3.5 mph 55 % 0.00 in 0.0 W/m2 CLR
18:21 28.5 °F 14.4 °F 29.97 in SSW 3.6 mph 5.8 mph 55 % 0.00 in 0.0 W/m2 CLR
18:26 28.5 °F 14.4 °F 29.96 in SSW 2.6 mph 4.0 mph 55 % 0.00 in 0.0 W/m2 CLR
18:31 28.5 °F 14.8 °F 29.97 in SW 3.3 mph 4.6 mph 56 % 0.00 in 0.0 W/m2 CLR
18:36 28.4 °F 14.7 °F 29.96 in SW 2.1 mph 3.5 mph 56 % 0.00 in 0.0 W/m2 CLR
18:41 28.5 °F 14.4 °F 29.96 in SSW 1.6 mph 3.5 mph 55 % 0.00 in 0.0 W/m2 CLR
18:46 28.5 °F 14.8 °F 29.97 in SSW 0.6 mph 2.3 mph 56 % 0.00 in 0.0 W/m2 CLR
18:51 28.5 °F 14.8 °F 29.98 in SW 1.3 mph 3.5 mph 56 % 0.00 in 0.0 W/m2 CLR
18:56 28.5 °F 14.8 °F 29.99 in SW 0.4 mph 3.5 mph 56 % 0.00 in 0.0 W/m2 CLR
19:01 28.4 °F 15.1 °F 29.99 in Calm     57 % 0.00 in 0.0 W/m2 CLR
19:06 28.4 °F 15.1 °F 29.99 in Calm     57 % 0.00 in 0.0 W/m2 CLR
19:11 28.4 °F 14.7 °F 29.98 in Calm     56 % 0.00 in 0.0 W/m2 CLR
19:16 28.4 °F 14.7 °F 29.97 in SW 0.7 mph 3.5 mph 56 % 0.00 in 0.0 W/m2 CLR
19:21 28.5 °F 15.2 °F 29.97 in Calm     57 % 0.00 in 0.0 W/m2 CLR
19:26 28.4 °F 15.5 °F 29.97 in SW 0.6 mph 3.0 mph 58 % 0.00 in 0.0 W/m2 CLR
19:31 28.4 °F 15.5 °F 29.97 in SW 0.7 mph 3.5 mph 58 % 0.00 in 0.0 W/m2 CLR
19:36 28.4 °F 15.5 °F 29.98 in Calm     58 % 0.00 in 0.0 W/m2 CLR
19:41 28.4 °F 15.5 °F 29.99 in SW 1.4 mph 2.3 mph 58 % 0.00 in 0.0 W/m2 CLR
19:46 28.4 °F 15.5 °F 29.99 in SW 0.7 mph 1.0 mph 58 % 0.00 in 0.0 W/m2 CLR
19:51 28.4 °F 15.5 °F 29.98 in SW 0.3 mph 3.5 mph 58 % 0.00 in 0.0 W/m2 CLR
19:56 28.4 °F 15.5 °F 29.99 in SW 0.7 mph 3.5 mph 58 % 0.00 in 0.0 W/m2 CLR
20:01 28.4 °F 15.5 °F 29.99 in SW 0.7 mph 2.3 mph 58 % 0.00 in 0.0 W/m2 CLR
20:06 28.4 °F 15.5 °F 29.99 in SW 0.7 mph 3.0 mph 58 % 0.00 in 0.0 W/m2 CLR
20:11 28.4 °F 15.5 °F 29.99 in SW 0.3 mph   58 % 0.00 in 0.0 W/m2 CLR
20:17 28.4 °F 15.5 °F 29.99 in SW 1.8 mph 2.3 mph 58 % 0.00 in 0.0 W/m2 CLR
20:22 28.4 °F 15.5 °F 29.99 in SW 0.2 mph 2.3 mph 58 % 0.00 in 0.0 W/m2 CLR
20:27 28.4 °F 15.5 °F 29.99 in Calm     58 % 0.00 in 0.0 W/m2 CLR
20:32 28.4 °F 15.5 °F 29.99 in Calm     58 % 0.00 in 0.0 W/m2 CLR
20:37 28.5 °F 15.6 °F 29.99 in Calm   2.3 mph 58 % 0.00 in 0.0 W/m2 CLR
20:42 28.5 °F 15.6 °F 29.99 in SW 0.7 mph 2.3 mph 58 % 0.00 in 0.0 W/m2 CLR
20:47 28.4 °F 15.9 °F 30.00 in Calm     59 % 0.00 in 0.0 W/m2 CLR
20:52 28.5 °F 16.0 °F 29.99 in Calm     59 % 0.00 in 0.0 W/m2 CLR
20:57 28.5 °F 16.0 °F 29.99 in SW 4.1 mph 5.8 mph 59 % 0.00 in 0.0 W/m2 CLR
21:02 28.5 °F 16.4 °F 29.99 in WSW 3.7 mph 5.0 mph 60 % 0.00 in 0.0 W/m2 CLR
21:07 28.5 °F 17.1 °F 29.99 in SW 7.4 mph 13.8 mph 62 % 0.00 in 0.0 W/m2 CLR
21:12 28.5 °F 17.9 °F 29.99 in SSW 6.4 mph 12.7 mph 64 % 0.00 in 0.0 W/m2 CLR
21:14 28.4 °F 18.1 °F 29.99 in WSW 5.0 mph 13.0 mph 65 % 0.00 in 0.0 W/m2 OVC
21:16 28.3 °F 18.4 °F 29.99 in SSW 4.2 mph 11.5 mph 66 % 0.00 in 0.0 W/m2 CLR
21:17 28.3 °F 18.0 °F 29.99 in SW 4.5 mph 11.5 mph 65 % 0.00 in 0.0 W/m2 CLR
21:19 28.2 °F 18.6 °F 29.98 in SW 3.0 mph 12.0 mph 67 % 0.00 in 0.0 W/m2 OVC
21:22 28.3 °F 18.4 °F 29.99 in SSW 4.2 mph 11.5 mph 66 % 0.00 in 0.0 W/m2 CLR
21:24 28.0 °F 18.8 °F 29.98 in SW 5.0 mph 12.0 mph 68 % 0.00 in 0.0 W/m2 OVC
21:29 27.8 °F 18.9 °F 29.99 in SW 6.0 mph 9.0 mph 69 % 0.00 in 0.0 W/m2 OVC
21:34 27.8 °F 19.3 °F 29.98 in SW 3.0 mph 9.0 mph 70 % 0.00 in 0.0 W/m2 OVC
21:39 27.7 °F 19.5 °F 29.98 in SW 2.0 mph 9.0 mph 71 % 0.00 in 0.0 W/m2 OVC
21:44 27.6 °F 19.8 °F 29.98 in SW 3.0 mph 6.0 mph 72 % 0.00 in 0.0 W/m2 OVC
21:49 27.6 °F 19.8 °F 29.98 in SW 3.0 mph 6.0 mph 72 % 0.00 in 0.0 W/m2 OVC
21:54 27.6 °F 20.1 °F 29.98 in WSW 3.0 mph 8.0 mph 73 % 0.00 in 0.0 W/m2 OVC
21:59 27.5 °F 20.0 °F 29.98 in SW 3.0 mph 8.0 mph 73 % 0.00 in 0.0 W/m2 OVC
22:04 27.4 °F 20.2 °F 29.98 in SW 3.0 mph 9.0 mph 74 % 0.00 in 0.0 W/m2 OVC
22:09 27.1 °F 20.2 °F 29.97 in SW 2.0 mph 7.0 mph 75 % 0.00 in 0.0 W/m2 OVC
22:14 27.0 °F 20.7 °F 29.98 in SSW 5.0 mph 7.0 mph 77 % 0.00 in 0.0 W/m2 OVC
22:19 28.3 °F 18.4 °F 29.99 in SSW 4.2 mph 11.5 mph 66 % 0.00 in 0.0 W/m2 CLR
22:24 26.7 °F 21.1 °F 29.98 in SSW 2.0 mph 6.0 mph 79 % 0.00 in 0.0 W/m2 OVC
22:29 26.6 °F 21.3 °F 29.98 in SW 2.0 mph 5.0 mph 80 % 0.00 in 0.0 W/m2 OVC
22:34 26.5 °F 21.5 °F 29.98 in SSW 1.0 mph 4.0 mph 81 % 0.00 in 0.0 W/m2 OVC
22:39 26.5 °F 21.7 °F 29.98 in SSW 2.0 mph 3.0 mph 82 % 0.00 in 0.0 W/m2 OVC
22:44 26.4 °F 21.7 °F 29.98 in Calm   3.0 mph 82 % 0.00 in 0.0 W/m2 OVC
22:49 26.3 °F 21.8 °F 29.98 in Calm   2.0 mph 83 % 0.00 in 0.0 W/m2 OVC
22:54 26.3 °F 21.8 °F 29.98 in Calm   1.0 mph 83 % 0.00 in 0.0 W/m2 OVC
22:59 26.3 °F 21.8 °F 29.98 in Calm     83 % 0.00 in 0.0 W/m2 OVC
23:04 26.3 °F 22.1 °F 29.98 in Calm     84 % 0.00 in 0.0 W/m2 OVC
23:09 26.3 °F 22.1 °F 29.98 in Calm     84 % 0.00 in 0.0 W/m2 OVC
23:14 26.3 °F 22.1 °F 29.98 in Calm     84 % 0.00 in 0.0 W/m2 OVC
23:19 26.3 °F 22.4 °F 29.99 in Calm   1.0 mph 85 % 0.00 in 0.0 W/m2 OVC
23:24 26.2 °F 22.3 °F 29.99 in Calm   1.0 mph 85 % 0.00 in 0.0 W/m2 OVC
23:29 26.2 °F 22.3 °F 29.98 in Calm     85 % 0.00 in 0.0 W/m2 OVC
23:34 26.2 °F 22.3 °F 29.98 in Calm     85 % 0.00 in 0.0 W/m2 OVC
23:39 26.2 °F 22.6 °F 29.99 in Calm     86 % 0.00 in 0.0 W/m2 OVC
23:44 26.2 °F 22.6 °F 29.99 in Calm     86 % 0.00 in 0.0 W/m2 OVC
23:49 26.2 °F 22.6 °F 29.98 in Calm     86 % 0.00 in 0.0 W/m2 OVC
23:54 26.2 °F 22.9 °F 29.98 in Calm     87 % 0.00 in 0.0 W/m2 OVC
23:59 26.2 °F 22.9 °F 29.99 in SSW 1.0 mph 2.0 mph 87 % 0.00 in 0.0 W/m2 OVC
Air Products Campus Weather
Compliments of Weather Underground - 3.5 mb